Time;durP1;ratioP1;P1;durP2;ratioP2;P2;SDS_P1;SDS_P2;PMS_P1;PMS_P2;Temp;Humidity;BMP_temperature;BMP_pressure;BME280_temperature;BME280_humidity;BME280_pressure;Samples;Min_cycle;Max_cycle;Signal;HPM_P1;HPM_P2
2021/12/02 00:00:59;;;;;;;1.52;0.68;;;4.40;99.90;;;;;;6170713;23;20020;-94
2021/12/02 00:03:25;;;;;;;0.32;0.32;;;3.70;99.90;;;;;;6144868;23;20013;-93
2021/12/02 00:05:51;;;;;;;1.58;0.70;;;3.60;99.90;;;;;;6169161;23;20012;-94
2021/12/02 00:08:17;;;;;;;0.47;0.43;;;3.60;99.90;;;;;;6169390;23;20013;-93
2021/12/02 00:10:43;;;;;;;2.00;0.73;;;4.50;99.90;;;;;;6169960;23;20013;-94
2021/12/02 00:13:15;;;;;;;0.50;0.50;;;3.60;99.90;;;;;;6169924;23;20100;-95
2021/12/02 00:15:52;;;;;;;0.40;0.40;;;4.80;99.90;;;;;;6170039;23;20017;-94
2021/12/02 00:21:07;;;;;;;0.73;0.50;;;3.80;99.90;;;;;;6195319;23;20477;-95
2021/12/02 00:23:47;;;;;;;3.65;1.15;;;3.80;99.90;;;;;;6170485;23;20020;-95
2021/12/02 00:26:16;;;;;;;0.63;0.47;;;3.80;99.90;;;;;;6169681;23;20017;-95
2021/12/02 00:28:42;;;;;;;3.25;1.05;;;3.80;99.90;;;;;;6170267;23;20056;-94
2021/12/02 00:31:15;;;;;;;6.05;0.93;;;4.20;99.90;;;;;;6170365;23;20095;-93
2021/12/02 00:33:44;;;;;;;3.00;0.45;;;4.20;99.90;;;;;;6169052;23;20058;-93
2021/12/02 00:36:11;;;;;;;2.38;0.82;;;4.70;99.90;;;;;;6169028;23;20008;-95
2021/12/02 00:38:40;;;;;;;2.85;0.70;;;3.80;99.90;;;;;;6170836;23;20016;-95
2021/12/02 00:41:08;;;;;;;0.70;0.60;;;3.70;99.90;;;;;;6169422;23;20441;-93
2021/12/02 00:43:35;;;;;;;1.75;0.77;;;3.70;99.90;;;;;;6171131;23;20013;-93
2021/12/02 00:46:00;;;;;;;2.40;0.68;;;3.60;99.90;;;;;;6168660;23;20008;-94
2021/12/02 00:48:26;;;;;;;0.50;0.50;;;4.00;99.90;;;;;;6170424;23;20100;-94
2021/12/02 00:50:53;;;;;;;1.20;0.70;;;3.70;99.90;;;;;;6169607;23;20020;-94
2021/12/02 00:53:21;;;;;;;3.05;0.88;;;3.50;99.90;;;;;;6170781;23;20012;-94
2021/12/02 00:55:48;;;;;;;0.40;0.40;;;3.50;99.90;;;;;;6195126;23;20017;-96
2021/12/02 00:58:19;;;;;;;0.40;0.40;;;3.50;99.90;;;;;;6147389;23;20442;-94
2021/12/02 01:00:50;;;;;;;0.68;0.50;;;3.50;99.90;;;;;;6171895;23;20022;-93
2021/12/02 01:03:16;;;;;;;0.88;0.80;;;3.40;99.90;;;;;;6170562;23;20061;-95
2021/12/02 01:05:43;;;;;;;9.85;1.63;;;4.00;99.90;;;;;;6196117;23;20023;-93
2021/12/02 01:08:13;;;;;;;7.93;0.82;;;3.30;99.90;;;;;;6172145;23;20020;-94
2021/12/02 01:10:41;;;;;;;0.90;0.50;;;3.30;99.90;;;;;;6170151;23;20020;-94
2021/12/02 01:13:30;;;;;;;0.40;0.40;;;3.20;99.90;;;;;;6197988;23;20070;-94
2021/12/02 01:16:04;;;;;;;;;;;3.10;99.90;;;;;;6167809;23;20019;-94
2021/12/02 01:18:30;;;;;;;0.30;0.30;;;3.20;99.90;;;;;;6171097;23;19918;-94
2021/12/02 01:20:59;;;;;;;0.50;0.50;;;3.10;99.90;;;;;;6171090;23;20016;-93
2021/12/02 01:23:29;;;;;;;0.30;0.30;;;3.10;99.90;;;;;;6170471;23;20043;-94
2021/12/02 01:26:00;;;;;;;0.60;0.60;;;3.60;99.90;;;;;;6169433;23;20014;-94
2021/12/02 01:28:26;;;;;;;0.40;0.40;;;3.00;99.90;;;;;;6169418;23;20057;-95
2021/12/02 01:30:53;;;;;;;0.73;0.40;;;3.00;99.90;;;;;;6195468;23;20019;-93
2021/12/02 01:33:22;;;;;;;5.28;2.05;;;3.40;99.90;;;;;;6170696;23;20080;-94
2021/12/02 01:35:57;;;;;;;0.88;0.80;;;3.10;99.90;;;;;;6146001;23;20017;-94
2021/12/02 01:38:25;;;;;;;0.30;0.30;;;3.00;99.90;;;;;;6169541;23;20117;-95
2021/12/02 01:40:51;;;;;;;17.48;4.00;;;3.40;99.90;;;;;;6171621;23;20012;-93
2021/12/02 01:43:19;;;;;;;0.40;0.40;;;2.80;99.90;;;;;;6170223;23;20019;-93
2021/12/02 01:45:45;;;;;;;2.58;0.80;;;3.90;99.90;;;;;;6169526;23;20020;-93
2021/12/02 01:48:22;;;;;;;0.75;0.40;;;2.90;99.90;;;;;;6169850;23;20016;-94
2021/12/02 01:51:00;;;;;;;0.50;0.50;;;3.00;99.90;;;;;;6169291;23;20016;-94
2021/12/02 01:53:34;;;;;;;0.50;0.45;;;3.00;99.90;;;;;;6170329;23;20036;-93
2021/12/02 01:56:15;;;;;;;0.50;0.50;;;2.50;99.90;;;;;;6168233;23;20495;-93
2021/12/02 01:58:48;;;;;;;6.65;1.92;;;3.10;99.90;;;;;;6170598;23;20012;-93
2021/12/02 02:01:19;;;;;;;3.58;1.35;;;3.70;99.90;;;;;;6170379;23;20330;-94
2021/12/02 02:03:50;;;;;;;6.00;0.93;;;2.80;99.90;;;;;;6170672;23;20012;-94
2021/12/02 02:06:49;;;;;;;3.03;1.00;;;2.80;99.90;;;;;;6170228;23;20069;-96
2021/12/02 02:09:21;;;;;;;4.43;1.17;;;2.60;99.90;;;;;;6172436;23;20013;-93
2021/12/02 02:15:13;;;;;;;5.57;0.57;;;2.20;99.90;;;;;;6213307;23;20100;-94
2021/12/02 02:24:15;;;;;;;0.30;0.30;;;1.60;99.90;;;;;;6237656;22;20023;-94
2021/12/02 02:27:12;;;;;;;0.30;0.30;;;1.50;99.90;;;;;;6194135;23;20401;-94
2021/12/02 02:30:16;;;;;;;0.30;0.30;;;3.10;99.90;;;;;;6169385;23;20020;-95
2021/12/02 02:32:42;;;;;;;0.57;0.40;;;2.20;99.90;;;;;;6133944;23;20021;-92
2021/12/02 02:35:08;;;;;;;0.40;0.40;;;1.90;99.90;;;;;;6163484;23;20015;-93
2021/12/02 02:37:36;;;;;;;0.40;0.40;;;2.00;99.90;;;;;;6168627;23;20040;-92
2021/12/02 02:40:13;;;;;;;0.30;0.30;;;2.00;99.90;;;;;;6169739;23;20055;-93
2021/12/02 02:42:39;;;;;;;0.47;0.47;;;2.10;99.90;;;;;;6169403;23;20040;-93
2021/12/02 02:45:26;;;;;;;4.22;0.82;;;2.10;99.90;;;;;;6169451;23;20349;-96
2021/12/02 02:51:26;;;;;;;0.40;0.40;;;3.20;99.90;;;;;;6195036;23;20032;-94
2021/12/02 02:53:55;;;;;;;0.40;0.40;;;1.10;99.90;;;;;;6147663;23;20017;-93
2021/12/02 02:57:50;;;;;;;0.50;0.50;;;2.10;99.90;;;;;;6167696;23;20028;-94
2021/12/02 03:08:51;;;;;;;1.13;0.75;;;3.10;99.90;;;;;;6190758;23;20055;-94
2021/12/02 03:11:19;;;;;;;0.40;0.40;;;1.80;99.90;;;;;;6168538;23;20077;-94
2021/12/02 03:14:33;;;;;;;0.40;0.40;;;1.70;99.90;;;;;;6169348;23;20116;-94
2021/12/02 03:16:59;;;;;;;0.43;0.43;;;1.70;99.90;;;;;;6169966;23;20059;-94
2021/12/02 03:19:28;;;;;;;0.73;0.40;;;1.90;99.90;;;;;;6169788;23;20012;-94
2021/12/02 03:21:55;;;;;;;0.40;0.40;;;1.70;99.90;;;;;;6169076;23;20017;-94
2021/12/02 03:24:24;;;;;;;0.40;0.40;;;1.60;99.90;;;;;;6171146;23;20025;-94
2021/12/02 03:27:15;;;;;;;0.50;0.50;;;1.40;99.90;;;;;;6169837;23;20064;-94
2021/12/02 03:33:00;;;;;;;0.40;0.40;;;1.70;99.90;;;;;;6178611;23;20020;-94
2021/12/02 03:35:39;;;;;;;;;;;;;;;;;;;;;
2021/12/02 03:38:05;;;;;;;0.32;0.32;;;1.70;99.90;;;;;;6197057;23;20012;-94
2021/12/02 03:40:56;;;;;;;0.40;0.40;;;3.10;99.90;;;;;;6170524;23;20013;-94
2021/12/02 03:43:22;;;;;;;0.40;0.40;;;1.60;99.90;;;;;;6167130;23;20016;-95
2021/12/02 03:45:55;;;;;;;0.30;0.30;;;1.60;99.90;;;;;;6170082;23;20023;-94
2021/12/02 03:48:38;;;;;;;0.30;0.30;;;1.50;99.90;;;;;;6170075;23;20027;-94
2021/12/02 03:51:11;;;;;;;0.47;0.47;;;2.30;99.90;;;;;;6168589;23;20020;-94
2021/12/02 03:53:53;;;;;;;0.30;0.30;;;1.80;99.90;;;;;;6145096;23;20012;-93
2021/12/02 03:56:22;;;;;;;0.40;0.40;;;1.50;99.90;;;;;;6170276;23;20013;-94
2021/12/02 03:58:57;;;;;;;0.40;0.40;;;1.70;99.90;;;;;;6168880;23;20013;-94
2021/12/02 04:01:57;;;;;;;0.60;0.60;;;1.60;99.90;;;;;;6168631;23;20096;-94
2021/12/02 04:04:23;;;;;;;0.40;0.40;;;1.30;99.90;;;;;;6169738;22;20096;-93
2021/12/02 04:07:10;;;;;;;1.42;0.60;;;1.90;99.90;;;;;;6170462;23;20019;-94
2021/12/02 04:09:40;;;;;;;1.35;0.60;;;2.10;99.90;;;;;;6169462;23;20082;-94
2021/12/02 04:12:22;;;;;;;0.55;0.50;;;2.10;99.90;;;;;;6168738;23;20038;-93
2021/12/02 04:15:00;;;;;;;9.07;0.60;;;2.00;99.90;;;;;;6169775;23;20020;-93
2021/12/02 04:17:44;;;;;;;4.03;0.75;;;2.20;99.90;;;;;;6193885;23;20072;-93
2021/12/02 04:20:37;;;;;;;1.90;0.55;;;2.20;99.90;;;;;;6169564;23;20015;-95
2021/12/02 04:23:03;;;;;;;0.40;0.40;;;1.50;99.90;;;;;;6194066;23;20035;-93
2021/12/02 04:25:29;;;;;;;0.40;0.40;;;2.20;99.90;;;;;;6168442;23;20013;-94
2021/12/02 04:28:00;;;;;;;5.90;0.55;;;1.70;99.90;;;;;;6145231;23;20027;-93
2021/12/02 04:30:39;;;;;;;0.40;0.40;;;2.10;99.90;;;;;;6197585;23;20012;-94
2021/12/02 04:33:14;;;;;;;0.40;0.40;;;2.00;99.90;;;;;;6170544;23;20017;-94
2021/12/02 04:35:50;;;;;;;0.40;0.40;;;2.00;99.90;;;;;;6167594;23;20399;-95
2021/12/02 04:38:27;;;;;;;0.40;0.40;;;2.50;99.90;;;;;;6147138;23;20012;-95
2021/12/02 04:41:07;;;;;;;0.50;0.50;;;2.00;99.90;;;;;;6194665;23;20016;-96
2021/12/02 04:43:33;;;;;;;0.40;0.40;;;2.00;99.90;;;;;;6170231;23;20049;-92
2021/12/02 04:46:24;;;;;;;1.38;0.95;;;3.00;99.90;;;;;;6170802;23;20096;-94
2021/12/02 04:48:56;;;;;;;0.40;0.40;;;2.10;99.90;;;;;;6170888;23;20035;-92
2021/12/02 04:51:49;;;;;;;0.50;0.50;;;2.10;99.90;;;;;;6187730;23;20020;-94
2021/12/02 04:54:41;;;;;;;0.50;0.50;;;3.20;99.90;;;;;;6255537;22;20009;-92
2021/12/02 04:57:13;;;;;;;0.40;0.40;;;2.10;99.90;;;;;;6148640;23;20390;-94
2021/12/02 04:59:39;;;;;;;0.40;0.40;;;1.10;99.90;;;;;;6168585;23;20019;-94
2021/12/02 05:02:05;;;;;;;2.80;0.93;;;2.00;99.90;;;;;;6167164;23;20027;-93
2021/12/02 05:04:48;;;;;;;0.40;0.40;;;3.20;99.90;;;;;;6168195;23;20024;-96
2021/12/02 05:07:38;;;;;;;0.40;0.40;;;1.60;99.90;;;;;;6197018;23;20068;-93
2021/12/02 05:10:17;;;;;;;5.72;0.60;;;2.10;99.90;;;;;;6197312;23;20066;-92
2021/12/02 05:13:10;;;;;;;0.40;0.40;;;1.90;99.90;;;;;;6161820;23;20016;-92
2021/12/02 05:15:38;;;;;;;1.10;0.50;;;2.20;99.90;;;;;;6193407;23;20040;-93
2021/12/02 05:18:15;;;;;;;0.40;0.40;;;2.20;99.90;;;;;;6168469;23;20021;-94
2021/12/02 05:20:54;;;;;;;0.50;0.50;;;1.70;99.90;;;;;;6168463;23;20017;-93
2021/12/02 05:23:35;;;;;;;0.55;0.55;;;2.00;99.90;;;;;;6197000;22;20028;-96
2021/12/02 05:26:01;;;;;;;0.30;0.30;;;2.10;99.90;;;;;;6167589;23;20037;-93
2021/12/02 05:28:59;;;;;;;0.40;0.40;;;2.90;99.90;;;;;;6168221;23;20017;-93
2021/12/02 05:31:45;;;;;;;0.40;0.40;;;3.10;99.90;;;;;;6168865;23;20023;-93
2021/12/02 05:34:10;;;;;;;0.30;0.30;;;2.10;99.90;;;;;;6169163;23;20441;-93
2021/12/02 05:36:36;;;;;;;0.40;0.40;;;2.00;99.90;;;;;;6170299;23;20066;-93
2021/12/02 05:39:10;;;;;;;0.40;0.40;;;1.90;99.90;;;;;;6169706;23;20058;-95
2021/12/02 05:42:01;;;;;;;0.40;0.40;;;1.90;99.90;;;;;;6171814;23;20507;-93
2021/12/02 05:44:27;;;;;;;0.50;0.50;;;2.00;99.90;;;;;;6193013;23;20065;-93
2021/12/02 05:46:53;;;;;;;0.40;0.40;;;1.80;99.90;;;;;;6169750;23;20438;-95
2021/12/02 05:53:08;;;;;;;0.50;0.50;;;3.20;99.90;;;;;;6193613;23;20167;-92
2021/12/02 05:55:37;;;;;;;0.43;0.40;;;2.00;99.90;;;;;;6169635;23;20087;-94
2021/12/02 05:58:07;;;;;;;0.40;0.40;;;2.00;99.90;;;;;;6168914;23;20012;-96
2021/12/02 06:00:47;;;;;;;0.40;0.40;;;2.00;99.90;;;;;;6170472;23;20087;-94
2021/12/02 06:03:13;;;;;;;0.40;0.40;;;2.10;99.90;;;;;;6171399;23;20020;-93
2021/12/02 06:05:39;;;;;;;0.73;0.50;;;1.80;99.90;;;;;;6171605;23;20388;-92
2021/12/02 06:08:11;;;;;;;0.35;0.35;;;3.70;99.90;;;;;;6195612;23;20017;-93
2021/12/02 06:10:40;;;;;;;0.77;0.60;;;1.90;99.90;;;;;;6171016;23;20020;-94
2021/12/02 06:13:21;;;;;;;0.40;0.40;;;1.90;99.90;;;;;;6168757;23;20095;-93
2021/12/02 06:15:52;;;;;;;0.50;0.50;;;1.90;99.90;;;;;;6168661;23;20017;-92
2021/12/02 06:18:21;;;;;;;0.40;0.40;;;1.80;99.90;;;;;;6169854;23;20463;-94
2021/12/02 06:20:54;;;;;;;0.50;0.50;;;1.80;99.90;;;;;;6192650;23;20379;-94
2021/12/02 06:23:31;;;;;;;0.40;0.40;;;3.00;99.90;;;;;;6171179;23;20024;-93
2021/12/02 06:25:59;;;;;;;0.50;0.50;;;2.30;99.90;;;;;;6194477;22;20101;-94
2021/12/02 06:28:26;;;;;;;1.00;0.60;;;2.30;99.90;;;;;;6168264;23;20012;-93
2021/12/02 06:31:02;;;;;;;2.63;0.63;;;1.80;99.90;;;;;;6169552;23;20074;-93
2021/12/02 06:33:32;;;;;;;0.50;0.50;;;1.90;99.90;;;;;;6168705;23;20020;-94
2021/12/02 06:35:58;;;;;;;0.45;0.45;;;1.90;99.90;;;;;;6167842;23;20012;-93
2021/12/02 06:38:30;;;;;;;0.65;0.65;;;1.90;99.90;;;;;;6168601;23;20024;-94
2021/12/02 06:40:59;;;;;;;0.40;0.40;;;2.50;99.90;;;;;;6144611;23;20065;-93
2021/12/02 06:43:30;;;;;;;0.40;0.40;;;3.10;99.90;;;;;;6170752;23;20016;-94
2021/12/02 06:46:02;;;;;;;3.83;0.50;;;1.80;99.90;;;;;;6171308;23;20080;-92
2021/12/02 06:48:30;;;;;;;0.40;0.40;;;1.70;99.90;;;;;;6169040;23;20137;-93
2021/12/02 06:51:13;;;;;;;0.40;0.40;;;1.40;99.90;;;;;;6169146;23;20579;-94
2021/12/02 06:53:51;;;;;;;0.40;0.40;;;1.40;99.90;;;;;;6170013;23;20029;-93
2021/12/02 06:56:32;;;;;;;0.40;0.40;;;1.50;99.90;;;;;;6172219;22;20016;-93
2021/12/02 06:59:07;;;;;;;0.60;0.60;;;1.60;99.90;;;;;;6176538;22;20065;-91
2021/12/02 07:01:34;;;;;;;0.40;0.40;;;1.50;99.90;;;;;;6167865;23;20441;-93
2021/12/02 07:04:08;;;;;;;0.50;0.50;;;1.50;99.90;;;;;;6169755;23;20157;-93
2021/12/02 07:06:44;;;;;;;0.50;0.50;;;2.20;99.90;;;;;;6169172;23;20016;-94
2021/12/02 07:09:34;;;;;;;0.50;0.50;;;2.40;99.90;;;;;;6169015;23;20021;-92
2021/12/02 07:12:28;;;;;;;0.75;0.50;;;1.50;99.90;;;;;;6169873;23;20020;-93
2021/12/02 07:14:54;;;;;;;0.40;0.40;;;1.40;99.90;;;;;;6201796;23;20013;-93
2021/12/02 07:17:20;;;;;;;0.50;0.50;;;0.50;99.90;;;;;;6168942;23;20012;-92
2021/12/02 07:19:46;;;;;;;0.50;0.50;;;1.30;99.90;;;;;;6170614;23;20013;-92
2021/12/02 07:22:12;;;;;;;0.68;0.50;;;1.20;99.90;;;;;;6168908;23;20338;-93
2021/12/02 07:24:52;;;;;;;0.30;0.30;;;1.30;99.90;;;;;;6170242;23;20027;-92
2021/12/02 07:27:18;;;;;;;0.40;0.40;;;1.60;99.90;;;;;;6171422;23;20081;-93
2021/12/02 07:29:44;;;;;;;0.50;0.50;;;2.40;99.90;;;;;;6172042;23;20016;-93
2021/12/02 07:32:11;;;;;;;0.50;0.50;;;1.30;99.90;;;;;;6172144;23;20019;-92
2021/12/02 07:34:43;;;;;;;0.50;0.50;;;1.10;99.90;;;;;;6172703;23;20017;-92
2021/12/02 07:37:19;;;;;;;0.98;0.93;;;1.10;99.90;;;;;;6172107;23;20013;-93
2021/12/02 07:39:45;;;;;;;;;;;1.40;99.90;;;;;;6168494;23;20024;-92
2021/12/02 07:42:11;;;;;;;0.55;0.55;;;1.30;99.90;;;;;;6146641;23;19942;-92
2021/12/02 07:44:37;;;;;;;0.40;0.40;;;1.40;99.90;;;;;;6171037;23;20013;-93
2021/12/02 07:47:06;;;;;;;0.50;0.50;;;2.00;99.90;;;;;;6169504;23;20069;-93
2021/12/02 07:49:53;;;;;;;0.50;0.50;;;1.50;99.90;;;;;;6169335;23;20047;-92
2021/12/02 07:52:23;;;;;;;0.50;0.50;;;1.40;99.90;;;;;;6167391;23;20016;-92
2021/12/02 07:54:55;;;;;;;0.50;0.50;;;1.50;99.90;;;;;;6168930;23;20452;-91
2021/12/02 07:57:46;;;;;;;0.50;0.50;;;1.90;99.90;;;;;;6168851;23;20040;-94
2021/12/02 08:00:15;;;;;;;0.40;0.40;;;1.60;99.90;;;;;;6193263;23;20023;-93
2021/12/02 08:02:49;;;;;;;0.95;0.88;;;1.60;99.90;;;;;;6168934;23;20072;-93
2021/12/02 08:05:18;;;;;;;0.50;0.50;;;2.20;99.90;;;;;;6165105;23;20028;-96
2021/12/02 08:07:44;;;;;;;0.50;0.50;;;1.00;99.90;;;;;;6166902;23;20016;-92
2021/12/02 08:10:27;;;;;;;0.40;0.40;;;2.60;99.90;;;;;;6169375;23;20055;-96
2021/12/02 08:13:10;;;;;;;0.60;0.60;;;1.20;99.90;;;;;;6149080;23;20021;-93
2021/12/02 08:15:36;;;;;;;3.55;1.38;;;1.80;99.90;;;;;;6195420;23;20069;-93
2021/12/02 08:18:14;;;;;;;0.70;0.70;;;1.90;99.90;;;;;;6172239;23;20020;-92
2021/12/02 08:20:43;;;;;;;0.52;0.52;;;1.90;99.90;;;;;;6171362;23;20016;-92
2021/12/02 08:23:09;;;;;;;0.40;0.40;;;2.00;99.90;;;;;;6171225;23;20052;-93
2021/12/02 08:25:35;;;;;;;0.30;0.30;;;1.10;99.90;;;;;;6194848;23;20021;-90
2021/12/02 08:28:02;;;;;;;0.40;0.40;;;2.20;99.90;;;;;;6169618;23;20031;-95
2021/12/02 08:30:38;;;;;;;0.55;0.50;;;1.70;99.90;;;;;;6121817;23;20023;-92
2021/12/02 08:33:08;;;;;;;0.40;0.40;;;2.10;99.90;;;;;;6171008;23;20099;-92
2021/12/02 08:35:38;;;;;;;0.40;0.40;;;2.20;99.90;;;;;;6170620;23;20068;-94
2021/12/02 08:38:10;;;;;;;0.85;0.57;;;2.20;99.90;;;;;;6168987;23;20013;-93
2021/12/02 08:40:39;;;;;;;0.82;0.60;;;2.10;99.90;;;;;;6170088;23;20017;-93
2021/12/02 08:43:17;;;;;;;1.67;0.40;;;2.20;99.90;;;;;;6171736;23;20042;-93
2021/12/02 08:45:46;;;;;;;0.55;0.55;;;2.20;99.90;;;;;;6146651;23;20023;-92
2021/12/02 08:48:12;;;;;;;0.93;0.50;;;2.30;99.90;;;;;;6169456;23;20017;-94
2021/12/02 08:50:40;;;;;;;0.40;0.40;;;2.40;99.90;;;;;;6170218;23;20387;-92
2021/12/02 08:53:14;;;;;;;0.50;0.50;;;2.20;99.90;;;;;;6170040;23;20017;-92
2021/12/02 08:55:43;;;;;;;0.50;0.50;;;1.60;99.90;;;;;;6168923;22;20008;-92
2021/12/02 08:58:13;;;;;;;0.40;0.40;;;2.60;99.90;;;;;;6170882;23;20012;-94
2021/12/02 09:00:40;;;;;;;0.50;0.50;;;2.00;99.90;;;;;;6168716;22;20017;-94
2021/12/02 09:03:12;;;;;;;0.57;0.57;;;1.20;99.90;;;;;;6144291;23;20017;-95
2021/12/02 09:05:39;;;;;;;0.35;0.35;;;3.30;99.90;;;;;;6169453;23;20024;-92
2021/12/02 09:08:06;;;;;;;0.50;0.50;;;2.20;99.90;;;;;;6171036;23;20100;-95
2021/12/02 09:10:33;;;;;;;1.25;0.50;;;2.00;99.90;;;;;;6145877;23;20017;-94
2021/12/02 09:12:59;;;;;;;0.50;0.50;;;2.00;99.90;;;;;;6168941;22;20059;-93
2021/12/02 09:15:35;;;;;;;0.40;0.40;;;1.80;99.90;;;;;;6169335;23;20066;-92
2021/12/02 09:18:01;;;;;;;0.40;0.40;;;1.90;99.90;;;;;;6169696;23;20034;-95
2021/12/02 09:20:26;;;;;;;0.40;0.40;;;2.00;99.90;;;;;;6169608;23;20391;-93
2021/12/02 09:22:52;;;;;;;0.40;0.40;;;1.50;99.90;;;;;;6170564;23;20073;-92
2021/12/02 09:25:22;;;;;;;0.50;0.50;;;1.80;99.90;;;;;;6168904;23;20027;-96
2021/12/02 09:27:48;;;;;;;0.43;0.43;;;2.10;99.90;;;;;;6168903;23;20017;-92
2021/12/02 09:30:24;;;;;;;0.40;0.40;;;2.10;99.90;;;;;;6170743;23;20026;-95
2021/12/02 09:32:51;;;;;;;0.40;0.40;;;3.00;99.90;;;;;;6167791;23;20048;-95
2021/12/02 09:35:16;;;;;;;0.60;0.60;;;2.60;99.90;;;;;;6167501;23;20012;-92
2021/12/02 09:37:43;;;;;;;0.55;0.55;;;3.00;99.90;;;;;;6170282;23;20099;-92
2021/12/02 09:40:11;;;;;;;0.40;0.40;;;2.80;99.90;;;;;;6168904;23;20023;-92
2021/12/02 09:42:37;;;;;;;0.50;0.50;;;2.50;99.90;;;;;;6169504;23;20431;-96
2021/12/02 09:45:04;;;;;;;0.40;0.40;;;2.50;99.90;;;;;;6168627;23;20038;-93
2021/12/02 09:47:37;;;;;;;0.63;0.50;;;2.60;99.90;;;;;;6168772;23;20016;-94
2021/12/02 09:50:08;;;;;;;0.57;0.57;;;4.40;99.90;;;;;;6171120;23;20041;-94
2021/12/02 09:53:05;;;;;;;0.40;0.40;;;3.10;99.90;;;;;;6193245;23;20017;-94
2021/12/02 09:56:07;;;;;;;0.90;0.75;;;2.60;99.90;;;;;;6169726;23;20618;-93
2021/12/02 09:58:35;;;;;;;0.47;0.47;;;2.60;99.90;;;;;;6194737;23;20021;-91
2021/12/02 10:01:19;;;;;;;0.52;0.52;;;2.10;99.90;;;;;;6170309;23;20020;-93
2021/12/02 10:03:49;;;;;;;0.40;0.40;;;2.70;99.90;;;;;;6168769;22;20097;-94
2021/12/02 10:06:56;;;;;;;0.47;0.47;;;2.60;99.90;;;;;;6170503;23;20017;-92
2021/12/02 10:09:28;;;;;;;0.50;0.50;;;2.70;99.90;;;;;;6167055;23;20077;-92
2021/12/02 10:12:22;;;;;;;2.05;0.50;;;2.80;99.90;;;;;;6193115;23;20013;-93
2021/12/02 10:14:58;;;;;;;0.40;0.40;;;2.70;99.90;;;;;;6167043;22;20008;-95
2021/12/02 10:17:47;;;;;;;0.35;0.35;;;3.40;99.90;;;;;;6139102;23;20024;-92
2021/12/02 10:23:36;;;;;;;0.30;0.30;;;2.90;99.90;;;;;;6194457;23;20056;-94
2021/12/02 10:26:13;;;;;;;0.50;0.50;;;3.00;99.90;;;;;;6192733;23;20031;-92
2021/12/02 10:28:52;;;;;;;;;;;;;;;;;;;;;
2021/12/02 10:31:39;;;;;;;0.40;0.40;;;2.60;99.90;;;;;;6190067;23;19956;-93
2021/12/02 10:34:11;;;;;;;0.50;0.50;;;3.00;99.90;;;;;;6146738;23;20378;-93
2021/12/02 10:36:47;;;;;;;0.50;0.50;;;3.70;99.90;;;;;;6146641;23;20023;-93
2021/12/02 10:39:17;;;;;;;0.40;0.40;;;3.50;99.90;;;;;;6168500;23;20019;-92
2021/12/02 10:41:45;;;;;;;0.50;0.50;;;3.50;99.90;;;;;;6170463;23;20046;-93
2021/12/02 10:44:13;;;;;;;0.60;0.50;;;4.90;99.90;;;;;;6172238;23;20011;-93
2021/12/02 10:47:09;;;;;;;0.40;0.40;;;3.50;99.90;;;;;;6171684;23;20070;-92
2021/12/02 10:49:41;;;;;;;1.30;0.77;;;4.30;99.90;;;;;;6192919;23;20015;-91
2021/12/02 10:52:13;;;;;;;0.60;0.50;;;3.70;99.90;;;;;;6167327;23;20433;-92
2021/12/02 10:54:47;;;;;;;0.50;0.50;;;3.80;99.90;;;;;;6169915;23;20019;-91
2021/12/02 10:57:24;;;;;;;0.40;0.40;;;3.80;99.90;;;;;;6170750;22;20013;-94
2021/12/02 11:00:13;;;;;;;0.40;0.40;;;4.80;99.90;;;;;;6168936;23;20009;-93
2021/12/02 11:02:50;;;;;;;2.25;1.42;;;3.90;99.90;;;;;;6170992;23;20438;-92
2021/12/02 11:05:36;;;;;;;1.75;0.80;;;4.00;99.90;;;;;;6170513;23;20020;-94
2021/12/02 11:08:15;;;;;;;0.45;0.45;;;4.10;99.90;;;;;;6169899;23;20040;-93
2021/12/02 11:10:51;;;;;;;4.13;0.85;;;4.30;99.90;;;;;;6191566;23;20013;-93
2021/12/02 11:13:18;;;;;;;1.00;0.43;;;4.40;99.90;;;;;;6167293;23;20017;-93
2021/12/02 11:15:44;;;;;;;3.17;0.60;;;4.80;99.90;;;;;;6141758;23;20024;-91
2021/12/02 11:18:12;;;;;;;2.45;0.90;;;4.90;99.90;;;;;;6168550;23;20013;-94
2021/12/02 11:20:43;;;;;;;2.38;0.90;;;4.80;99.90;;;;;;6165770;23;20005;-92
2021/12/02 11:23:29;;;;;;;2.58;0.80;;;4.00;99.90;;;;;;6169275;23;20020;-93
2021/12/02 11:25:56;;;;;;;4.70;0.75;;;2.70;99.90;;;;;;6171864;23;20017;-95
2021/12/02 11:28:41;;;;;;;1.33;0.77;;;2.00;99.90;;;;;;6170659;23;20024;-95
2021/12/02 11:31:27;;;;;;;;;;;1.60;99.90;;;;;;6171519;23;20017;-94
2021/12/02 11:33:56;;;;;;;3.00;0.80;;;1.80;99.90;;;;;;6175541;23;19920;-94
2021/12/02 11:37:04;;;;;;;1.35;0.80;;;2.70;99.90;;;;;;6172459;23;20463;-95
2021/12/02 11:39:42;;;;;;;1.67;1.02;;;1.40;99.90;;;;;;6115709;23;20305;-95
2021/12/02 11:42:42;;;;;;;0.50;0.50;;;3.30;99.90;;;;;;6170176;23;20052;-92
2021/12/02 11:45:11;;;;;;;0.60;0.50;;;1.10;99.90;;;;;;6193954;23;20104;-93
2021/12/02 11:47:44;;;;;;;0.60;0.60;;;2.80;99.90;;;;;;6166646;23;20021;-93
2021/12/02 11:50:12;;;;;;;0.70;0.50;;;1.70;99.90;;;;;;6167155;23;20073;-93
2021/12/02 11:52:56;;;;;;;0.80;0.70;;;2.20;99.90;;;;;;6166951;23;20099;-93
2021/12/02 11:59:05;;;;;;;0.50;0.50;;;1.40;99.90;;;;;;6224926;23;20472;-93
2021/12/02 12:01:31;;;;;;;0.68;0.65;;;1.50;99.90;;;;;;6166468;23;20012;-94
2021/12/02 12:04:12;;;;;;;3.65;0.60;;;1.70;99.90;;;;;;6167601;23;20023;-94
2021/12/02 12:06:42;;;;;;;1.00;0.70;;;1.60;99.90;;;;;;6166187;23;20044;-96
2021/12/02 12:09:17;;;;;;;2.17;0.80;;;1.80;99.90;;;;;;6169061;23;20017;-93
2021/12/02 12:11:52;;;;;;;2.78;0.90;;;1.90;99.90;;;;;;6167570;23;20020;-92
2021/12/02 12:14:33;;;;;;;0.60;0.60;;;2.20;99.90;;;;;;6193679;23;20533;-92
2021/12/02 12:17:09;;;;;;;0.88;0.70;;;3.20;99.90;;;;;;6169315;23;20017;-94
2021/12/02 12:24:03;;;;;;;2.47;0.80;;;1.30;99.90;;;;;;6086512;23;20049;-92
2021/12/02 12:33:41;;;;;;;1.38;0.60;;;1.70;99.90;;;;;;6234092;23;20084;-94
2021/12/02 12:36:46;;;;;;;0.50;0.50;;;1.60;99.90;;;;;;6201540;23;20016;-93
2021/12/02 12:39:28;;;;;;;2.28;0.68;;;1.60;99.90;;;;;;6179306;23;20020;-95
2021/12/02 12:42:15;;;;;;;2.40;0.60;;;1.70;99.90;;;;;;6168788;23;20016;-92
2021/12/02 12:44:54;;;;;;;1.48;0.70;;;1.70;99.90;;;;;;6168131;23;20020;-92
2021/12/02 12:47:44;;;;;;;4.10;0.63;;;2.40;99.90;;;;;;6167990;23;20087;-91
2021/12/02 12:50:42;;;;;;;3.22;0.50;;;1.70;99.90;;;;;;6167694;23;20020;-93
2021/12/02 12:53:35;;;;;;;4.60;0.75;;;1.70;99.90;;;;;;6166336;23;20044;-92
2021/12/02 12:56:14;;;;;;;0.60;0.60;;;1.10;99.90;;;;;;6166337;23;20018;-93
2021/12/02 12:58:58;;;;;;;5.78;0.70;;;1.60;99.90;;;;;;6166178;23;20019;-96
2021/12/02 13:01:57;;;;;;;7.57;0.75;;;0.80;99.90;;;;;;6168458;23;20045;-94
2021/12/02 13:04:25;;;;;;;2.05;0.70;;;1.80;99.90;;;;;;6166657;23;20472;-92
2021/12/02 13:07:03;;;;;;;0.95;0.50;;;4.00;99.90;;;;;;6166864;23;20023;-92
2021/12/02 13:09:58;;;;;;;2.95;0.70;;;1.70;99.90;;;;;;6168292;23;20345;-92
2021/12/02 13:12:42;;;;;;;2.55;0.70;;;1.80;99.90;;;;;;6168782;23;20044;-92
2021/12/02 13:15:29;;;;;;;1.27;0.77;;;1.70;99.90;;;;;;6170169;23;20019;-93
2021/12/02 13:18:08;;;;;;;0.70;0.60;;;1.70;99.90;;;;;;6160668;23;20055;-91
2021/12/02 13:20:43;;;;;;;0.50;0.50;;;1.80;99.90;;;;;;6142388;23;20009;-94
2021/12/02 13:23:27;;;;;;;0.63;0.50;;;1.90;99.90;;;;;;6168756;23;20016;-93
2021/12/02 13:26:29;;;;;;;0.95;0.60;;;1.30;99.90;;;;;;6144898;23;20017;-96
2021/12/02 13:28:59;;;;;;;0.40;0.40;;;2.20;99.90;;;;;;6146517;23;20066;-92
2021/12/02 13:31:26;;;;;;;0.98;0.80;;;1.80;99.90;;;;;;6166884;23;20016;-92
2021/12/02 13:34:16;;;;;;;1.80;0.63;;;1.60;99.90;;;;;;6192754;23;20077;-94
2021/12/02 13:36:58;;;;;;;9.65;0.57;;;2.70;99.90;;;;;;6168189;23;20017;-94
2021/12/02 13:40:05;;;;;;;0.57;0.50;;;1.20;99.90;;;;;;6168085;23;20017;-93
2021/12/02 13:42:55;;;;;;;1.33;0.80;;;1.40;99.90;;;;;;6088376;23;20073;-91
2021/12/02 13:45:43;;;;;;;1.95;0.80;;;3.10;99.90;;;;;;6167724;23;20063;-91
2021/12/02 13:48:17;;;;;;;2.35;0.80;;;2.10;99.90;;;;;;6167792;23;20016;-92
2021/12/02 13:54:20;;;;;;;0.60;0.60;;;2.10;99.90;;;;;;6191188;23;20021;-91
2021/12/02 13:56:59;;;;;;;3.33;0.80;;;3.10;99.90;;;;;;6166747;23;20048;-91
2021/12/02 13:59:46;;;;;;;1.00;0.70;;;2.10;99.90;;;;;;6171680;23;20052;-92
2021/12/02 14:02:27;;;;;;;0.57;0.50;;;2.50;99.90;;;;;;6167680;23;20402;-92
2021/12/02 14:05:19;;;;;;;0.50;0.50;;;2.10;99.90;;;;;;6169209;23;20334;-93
2021/12/02 14:08:22;;;;;;;1.85;1.05;;;2.70;99.90;;;;;;6169679;22;20064;-93
2021/12/02 14:11:11;;;;;;;0.40;0.40;;;1.70;99.90;;;;;;6167303;22;20009;-93
2021/12/02 14:14:01;;;;;;;1.08;0.90;;;1.30;99.90;;;;;;6193289;23;20027;-92
2021/12/02 14:16:47;;;;;;;;;;;;;;;;;;;;;
2021/12/02 14:19:22;;;;;;;0.85;0.55;;;2.00;99.90;;;;;;6191876;23;20023;-92
2021/12/02 14:22:14;;;;;;;1.38;0.68;;;2.40;99.90;;;;;;6169165;23;20261;-93
2021/12/02 14:24:48;;;;;;;1.00;0.70;;;1.50;99.90;;;;;;6167153;23;20016;-93
2021/12/02 14:27:26;;;;;;;0.50;0.50;;;1.70;99.90;;;;;;6171380;23;20012;-93
2021/12/02 14:30:12;;;;;;;0.50;0.50;;;1.90;99.90;;;;;;6167977;23;20068;-92
2021/12/02 14:33:23;;;;;;;0.30;0.30;;;1.50;99.90;;;;;;6169836;23;20023;-92
2021/12/02 14:36:16;;;;;;;0.43;0.43;;;2.20;99.90;;;;;;6196507;23;20017;-93
2021/12/02 14:39:04;;;;;;;0.40;0.40;;;1.30;99.90;;;;;;6169431;23;20069;-94